createdAt,value
2018-05-14T00:02:04.956Z,154.68
2018-05-14T00:04:34.424Z,153.32
2018-05-14T00:07:04.482Z,142.75
2018-05-14T00:09:34.693Z,171.80
2018-05-14T00:12:05.305Z,160.18
2018-05-14T00:14:38.270Z,157.50
2018-05-14T00:17:09.242Z,163.37
2018-05-14T00:19:39.768Z,159.07
2018-05-14T00:22:10.358Z,163.15
2018-05-14T00:24:40.339Z,157.57
2018-05-14T00:27:12.415Z,165.00
2018-05-14T00:29:45.490Z,156.25
2018-05-14T00:32:15.492Z,159.85
2018-05-14T00:34:48.318Z,160.95
2018-05-14T00:37:20.495Z,156.63
2018-05-14T00:39:52.252Z,165.98
2018-05-14T00:42:21.908Z,158.73
2018-05-14T00:44:54.540Z,172.73
2018-05-14T00:47:24.396Z,159.73
2018-05-14T00:49:57.050Z,166.75
2018-05-14T00:52:29.056Z,161.73
2018-05-14T00:55:10.076Z,153.87
2018-05-14T00:57:40.203Z,166.70
2018-05-14T01:00:09.850Z,149.12
2018-05-14T01:02:42.309Z,174.02
2018-05-14T01:05:14.285Z,157.88
2018-05-14T01:07:46.793Z,168.07
2018-05-14T01:10:18.592Z,163.80
2018-05-14T01:12:50.655Z,174.50
2018-05-14T01:15:20.045Z,147.05
2018-05-14T01:17:50.510Z,152.15
2018-05-14T01:20:20.900Z,149.90
2018-05-14T01:22:52.610Z,156.95
2018-05-14T01:25:24.682Z,158.77
2018-05-14T01:27:54.304Z,157.23
2018-05-14T01:30:25.301Z,158.70
2018-05-14T01:32:57.962Z,149.18
2018-05-14T01:35:28.273Z,130.05
2018-05-14T01:37:57.828Z,146.60
2018-05-14T01:40:29.710Z,153.90
2018-05-14T01:43:01.322Z,143.90
2018-05-14T01:45:31.561Z,159.70
2018-05-14T01:48:02.375Z,159.75
2018-05-14T01:50:32.616Z,158.15
2018-05-14T01:53:05.721Z,149.02
2018-05-14T01:55:36.360Z,156.07
2018-05-14T01:58:05.970Z,150.57
2018-05-14T02:00:37.535Z,154.27
2018-05-14T02:03:07.332Z,157.60
2018-05-14T02:05:39.273Z,167.15
2018-05-14T02:08:11.496Z,150.52
2018-05-14T02:10:44.345Z,152.30
2018-05-14T02:13:16.208Z,141.55
2018-05-14T02:15:47.025Z,148.30
2018-05-14T02:18:18.972Z,164.95
2018-05-14T02:20:51.867Z,138.40
2018-05-14T02:23:23.604Z,123.85
2018-05-14T02:25:55.277Z,135.15
2018-05-14T02:28:27.109Z,143.40
2018-05-14T02:31:00.480Z,160.25
2018-05-14T02:33:30.204Z,163.10
2018-05-14T02:35:59.631Z,155.75
2018-05-14T02:38:31.267Z,133.95
2018-05-14T02:41:01.296Z,152.05
2018-05-14T02:43:33.933Z,151.57
2018-05-14T02:46:05.644Z,162.07
2018-05-14T02:48:38.557Z,141.07
2018-05-14T02:51:10.453Z,149.52
2018-05-14T02:53:42.175Z,154.20
2018-05-14T02:56:11.754Z,141.37
2018-05-14T02:58:42.279Z,150.50
2018-05-14T03:01:14.861Z,144.95
2018-05-14T03:03:45.728Z,153.15
2018-05-14T03:06:20.020Z,152.32
2018-05-14T03:08:52.490Z,160.50
2018-05-14T03:11:25.070Z,136.85
2018-05-14T03:13:56.881Z,132.07
2018-05-14T03:16:28.882Z,122.60
2018-05-14T03:18:59.234Z,134.18
2018-05-14T03:21:28.872Z,135.23
2018-05-14T03:24:00.805Z,139.60
2018-05-14T03:26:30.914Z,153.15
2018-05-14T03:29:03.898Z,144.45
2018-05-14T03:31:35.035Z,166.40
2018-05-14T03:34:04.879Z,170.98
2018-05-14T03:36:44.120Z,205.65
2018-05-14T03:39:14.103Z,138.85
2018-05-14T03:41:44.904Z,101.30
2018-05-14T03:44:15.838Z,120.43
2018-05-14T03:46:47.611Z,100.55
2018-05-14T03:49:20.153Z,106.45
2018-05-14T03:51:50.184Z,121.07
2018-05-14T03:54:19.119Z,106.80
2018-05-14T03:56:57.468Z,111.80
2018-05-14T03:59:38.379Z,106.30
2018-05-14T04:02:22.700Z,129.63
2018-05-14T04:05:03.594Z,132.93
2018-05-14T04:07:35.634Z,133.30
2018-05-14T04:10:05.361Z,139.55
2018-05-14T04:12:36.137Z,117.57
2018-05-14T04:15:08.583Z,123.40
2018-05-14T04:17:40.463Z,111.65
2018-05-14T04:20:12.998Z,106.20
2018-05-14T04:22:43.739Z,124.22
2018-05-14T04:25:13.385Z,121.03
2018-05-14T04:27:43.831Z,140.18
2018-05-14T04:30:14.551Z,109.30
2018-05-14T04:32:46.940Z,118.05
2018-05-14T04:35:17.393Z,134.15
2018-05-14T04:37:48.191Z,130.32
2018-05-14T04:40:21.321Z,132.35
2018-05-14T04:42:53.147Z,127.57
2018-05-14T04:45:24.880Z,135.32
2018-05-14T04:47:54.605Z,129.45
2018-05-14T04:50:27.291Z,129.02
2018-05-14T04:52:59.907Z,131.95
2018-05-14T04:55:30.727Z,127.80
2018-05-14T04:58:02.784Z,122.37
2018-05-14T05:00:34.478Z,134.23
2018-05-14T05:03:04.597Z,128.35
2018-05-14T05:05:36.872Z,129.43
2018-05-14T05:08:07.912Z,133.37
2018-05-14T05:10:39.654Z,125.07
2018-05-14T05:13:09.368Z,132.68
2018-05-14T05:15:41.159Z,139.12
2018-05-14T05:18:13.848Z,131.37
2018-05-14T05:20:46.426Z,121.68
2018-05-14T05:23:18.774Z,141.25
2018-05-14T05:25:48.374Z,132.40
2018-05-14T05:28:19.069Z,135.88
2018-05-14T05:30:51.547Z,132.37
2018-05-14T05:33:21.022Z,133.65
2018-05-14T05:35:53.694Z,123.75
2018-05-14T05:38:27.373Z,118.75
2018-05-14T05:40:57.572Z,125.40
2018-05-14T05:43:29.882Z,115.62
2018-05-14T05:46:01.082Z,124.53
2018-05-14T05:48:38.678Z,128.52
2018-05-14T05:51:10.977Z,122.13
2018-05-14T05:53:45.027Z,114.72
2018-05-14T05:56:15.103Z,119.20
2018-05-14T05:58:52.517Z,95.45
2018-05-14T06:01:36.528Z,112.97
2018-05-14T06:04:16.067Z,127.22
2018-05-14T06:06:53.281Z,123.05
2018-05-14T06:09:23.430Z,115.57
2018-05-14T06:12:01.218Z,123.55
2018-05-14T06:14:31.470Z,120.10
2018-05-14T06:17:01.328Z,106.05
2018-05-14T06:19:31.891Z,106.87
2018-05-14T06:22:03.026Z,113.70
2018-05-14T06:24:40.260Z,107.50
2018-05-14T06:27:17.961Z,101.62
2018-05-14T06:29:49.850Z,97.62
2018-05-14T06:32:21.927Z,97.25
2018-05-14T06:34:51.846Z,96.97
2018-05-14T06:37:22.868Z,105.53
2018-05-14T06:40:01.318Z,93.82
2018-05-14T06:42:34.047Z,98.93
2018-05-14T06:45:12.898Z,95.25
2018-05-14T06:47:42.252Z,91.90
2018-05-14T06:50:14.913Z,106.87
2018-05-14T06:52:44.863Z,97.80
2018-05-14T06:55:16.442Z,89.18
2018-05-14T06:57:46.077Z,81.80
2018-05-14T07:00:15.866Z,85.95
2018-05-14T07:02:45.836Z,95.87
2018-05-14T07:05:17.872Z,87.18
2018-05-14T07:07:50.055Z,99.13
2018-05-14T07:10:19.933Z,93.00
2018-05-14T07:12:52.941Z,102.45
2018-05-14T07:15:24.096Z,99.18
2018-05-14T07:17:56.406Z,85.85
2018-05-14T07:20:27.301Z,90.68
2018-05-14T07:22:59.661Z,97.85
2018-05-14T07:25:31.941Z,96.75
2018-05-14T07:28:02.442Z,96.22
2018-05-14T07:30:34.501Z,88.37
2018-05-14T07:33:18.484Z,91.80
2018-05-14T07:35:51.633Z,87.60
2018-05-14T07:38:22.147Z,103.22
2018-05-14T07:40:53.491Z,94.57
2018-05-14T07:43:24.363Z,92.03
2018-05-14T07:45:57.656Z,94.93
2018-05-14T07:48:27.650Z,85.38
2018-05-14T07:50:57.658Z,90.93
2018-05-14T07:53:28.286Z,92.75
2018-05-14T07:56:00.007Z,86.90
2018-05-14T07:58:30.062Z,97.12
2018-05-14T08:01:00.999Z,101.97
2018-05-14T08:03:32.868Z,87.37
2018-05-14T08:06:04.136Z,87.88
2018-05-14T08:08:34.137Z,93.10
2018-05-14T08:11:05.078Z,90.72
2018-05-14T08:13:37.592Z,87.50
2018-05-14T08:16:08.467Z,92.70
2018-05-14T08:18:39.106Z,87.47
2018-05-14T08:21:10.562Z,91.83
2018-05-14T08:23:42.853Z,99.20
2018-05-14T08:26:14.451Z,84.23
2018-05-14T08:28:45.557Z,97.10
2018-05-14T08:31:16.319Z,95.90
2018-05-14T08:33:47.492Z,89.67
2018-05-14T08:36:18.193Z,96.30
2018-05-14T08:38:48.044Z,89.97
2018-05-14T08:41:21.432Z,87.00
2018-05-14T08:43:52.525Z,87.73
2018-05-14T08:46:23.973Z,93.37
2018-05-14T08:48:54.128Z,95.23
2018-05-14T08:51:24.008Z,93.00
2018-05-14T08:53:55.292Z,83.43
2018-05-14T08:56:26.576Z,90.00
2018-05-14T08:58:56.959Z,93.27
2018-05-14T09:01:29.389Z,92.07
2018-05-14T09:03:59.808Z,109.43
2018-05-14T09:06:32.609Z,92.90
2018-05-14T09:09:03.193Z,101.43
2018-05-14T09:11:34.601Z,95.87
2018-05-14T09:14:06.121Z,98.23
2018-05-14T09:16:38.701Z,92.87
2018-05-14T09:19:09.734Z,93.47
2018-05-14T09:21:39.802Z,91.03
2018-05-14T09:24:10.312Z,74.10
2018-05-14T09:26:40.594Z,83.33
2018-05-14T09:29:13.640Z,84.83
2018-05-14T09:31:44.413Z,86.23
2018-05-14T09:34:15.810Z,82.37
2018-05-14T09:36:45.774Z,81.47
2018-05-14T09:39:17.731Z,74.50
2018-05-14T09:41:49.087Z,84.70
2018-05-14T09:44:19.793Z,82.50
2018-05-14T09:46:49.818Z,83.77
2018-05-14T09:49:21.469Z,73.23
2018-05-14T09:51:52.389Z,79.30
2018-05-14T09:54:25.606Z,85.33
2018-05-14T09:56:55.515Z,81.07
2018-05-14T09:59:25.523Z,81.00
2018-05-14T10:01:55.530Z,74.23
2018-05-14T10:04:26.691Z,83.00
2018-05-14T10:06:56.573Z,77.47
2018-05-14T10:09:26.606Z,74.73
2018-05-14T10:11:59.593Z,76.13
2018-05-14T10:14:31.783Z,72.00
2018-05-14T10:17:03.565Z,81.17
2018-05-14T10:19:34.679Z,67.60
2018-05-14T10:22:05.769Z,78.87
2018-05-14T10:24:35.569Z,75.30
2018-05-14T10:27:06.863Z,72.97
2018-05-14T10:29:38.017Z,71.63
2018-05-14T10:32:10.344Z,70.93
2018-05-14T10:34:40.461Z,70.73
2018-05-14T10:37:11.499Z,65.93
2018-05-14T10:39:41.384Z,62.47
2018-05-14T10:42:15.325Z,64.43
2018-05-14T10:44:45.246Z,64.77
2018-05-14T10:47:16.131Z,70.77
2018-05-14T10:49:49.061Z,72.70
2018-05-14T10:52:19.813Z,71.83
2018-05-14T10:54:50.357Z,56.73
2018-05-14T10:57:20.440Z,60.73
2018-05-14T10:59:51.005Z,54.37
2018-05-14T11:02:20.913Z,51.37
2018-05-14T11:04:52.327Z,56.40
2018-05-14T11:07:22.250Z,54.03
2018-05-14T11:09:52.237Z,60.03
2018-05-14T11:12:23.064Z,52.60
2018-05-14T11:14:53.722Z,54.87
2018-05-14T11:17:24.794Z,50.33
2018-05-14T11:19:56.086Z,56.07
2018-05-14T11:22:26.543Z,49.30
2018-05-14T11:24:58.586Z,52.77
2018-05-14T11:27:30.182Z,49.07
2018-05-14T11:30:00.471Z,46.57
2018-05-14T11:32:31.986Z,46.10
2018-05-14T11:35:02.650Z,47.27
2018-05-14T11:37:36.896Z,48.03
2018-05-14T11:40:09.654Z,46.20
2018-05-14T11:42:40.599Z,42.10
2018-05-14T11:45:13.906Z,45.40
2018-05-14T11:47:44.523Z,47.73
2018-05-14T11:50:15.763Z,46.10
2018-05-14T11:52:50.953Z,50.47
2018-05-14T11:55:20.869Z,43.57
2018-05-14T11:57:53.391Z,51.40
2018-05-14T12:00:26.391Z,44.23
2018-05-14T12:02:57.087Z,42.77
2018-05-14T12:05:27.973Z,42.40
2018-05-14T12:07:59.196Z,44.70
2018-05-14T12:10:31.061Z,51.10
2018-05-14T12:13:01.759Z,42.20
2018-05-14T12:15:31.555Z,47.70
2018-05-14T12:18:03.795Z,41.40
2018-05-14T12:20:35.939Z,45.37
2018-05-14T12:23:08.914Z,42.97
2018-05-14T12:25:39.881Z,42.43
2018-05-14T12:28:11.935Z,43.60
2018-05-14T12:30:43.222Z,39.63
2018-05-14T12:33:14.429Z,40.30
2018-05-14T12:35:45.221Z,43.73
2018-05-14T12:38:17.183Z,36.13
2018-05-14T12:40:51.904Z,38.13
2018-05-14T12:43:23.285Z,40.20
2018-05-14T12:45:54.279Z,33.90
2018-05-14T12:48:26.362Z,43.27
2018-05-14T12:50:56.226Z,36.53
2018-05-14T12:53:27.098Z,39.53
2018-05-14T12:55:59.550Z,27.57
2018-05-14T12:58:32.036Z,32.30
2018-05-14T13:01:04.371Z,27.53
2018-05-14T13:03:37.989Z,27.33
2018-05-14T13:06:08.491Z,24.90
2018-05-14T13:08:41.647Z,23.47
2018-05-14T13:11:12.057Z,25.43
2018-05-14T13:13:44.228Z,27.33
2018-05-14T13:16:14.220Z,22.67
2018-05-14T13:18:44.525Z,26.40
2018-05-14T13:21:15.156Z,20.10
2018-05-14T13:23:46.043Z,20.60
2018-05-14T13:26:16.725Z,21.80
2018-05-14T13:28:47.013Z,17.63
2018-05-14T13:31:18.439Z,16.20
2018-05-14T13:33:48.658Z,15.90
2018-05-14T13:36:20.750Z,16.53
2018-05-14T13:38:50.623Z,12.80
2018-05-14T13:41:20.745Z,16.67
2018-05-14T13:43:50.863Z,14.90
2018-05-14T13:46:21.888Z,15.93
2018-05-14T13:48:53.628Z,14.40
2018-05-14T13:51:23.424Z,14.27
2018-05-14T13:53:55.841Z,13.67
2018-05-14T13:56:28.745Z,12.83
2018-05-14T13:58:59.773Z,11.40
2018-05-14T14:01:30.409Z,15.37
2018-05-14T14:04:01.626Z,10.77
2018-05-14T14:06:31.636Z,14.23
2018-05-14T14:09:04.763Z,8.90
2018-05-14T14:11:35.101Z,12.17
2018-05-14T14:14:09.695Z,15.07
2018-05-14T14:16:41.571Z,16.83
2018-05-14T14:19:13.495Z,20.53
2018-05-14T14:21:45.945Z,15.10
2018-05-14T14:24:19.166Z,9.70
2018-05-14T14:26:49.346Z,12.20
2018-05-14T14:29:22.068Z,6.53
2018-05-14T14:31:54.182Z,8.10
2018-05-14T14:34:25.811Z,9.67
2018-05-14T14:36:57.268Z,9.33
2018-05-14T14:39:28.631Z,16.07
2018-05-14T14:41:59.230Z,6.83
2018-05-14T14:44:31.754Z,8.20
2018-05-14T14:47:02.040Z,7.97
2018-05-14T14:49:33.236Z,8.30
2018-05-14T14:52:03.253Z,14.40
2018-05-14T14:54:33.405Z,5.07
2018-05-14T14:57:04.100Z,12.63
2018-05-14T14:59:33.765Z,7.97
2018-05-14T15:02:05.925Z,5.77
2018-05-14T15:04:37.110Z,9.63
2018-05-14T15:07:10.708Z,6.00
2018-05-14T15:09:41.178Z,8.23
2018-05-14T15:12:12.183Z,5.03
2018-05-14T15:14:42.377Z,7.13
2018-05-14T15:17:13.218Z,6.83
2018-05-14T15:19:45.575Z,7.33
2018-05-14T15:22:15.748Z,10.97
2018-05-14T15:24:47.529Z,9.50
2018-05-14T15:27:18.679Z,9.33
2018-05-14T15:29:48.623Z,5.10
2018-05-14T15:32:18.908Z,7.50
2018-05-14T15:34:49.780Z,5.13
2018-05-14T15:37:19.243Z,8.87
2018-05-14T15:39:49.975Z,5.30
2018-05-14T15:42:21.067Z,7.00
2018-05-14T15:44:54.192Z,9.80
2018-05-14T15:47:24.943Z,6.10
2018-05-14T15:49:56.109Z,5.50
2018-05-14T15:52:25.964Z,7.60
2018-05-14T15:54:56.138Z,5.00
2018-05-14T15:57:26.753Z,6.87
2018-05-14T15:59:58.611Z,7.60
2018-05-14T16:02:31.364Z,6.20
2018-05-14T16:05:03.797Z,8.17
2018-05-14T16:07:35.895Z,5.80
2018-05-14T16:10:07.653Z,4.97
2018-05-14T16:12:38.898Z,10.10
2018-05-14T16:15:09.025Z,5.60
2018-05-14T16:17:41.447Z,6.10
2018-05-14T16:20:11.205Z,4.20
2018-05-14T16:22:43.375Z,10.33
2018-05-14T16:25:14.574Z,7.63
2018-05-14T16:27:45.611Z,7.77
2018-05-14T16:30:15.738Z,8.10
2018-05-14T16:32:48.014Z,7.50
2018-05-14T16:35:18.471Z,6.07
2018-05-14T16:37:49.670Z,6.60
2018-05-14T16:40:23.664Z,3.90
2018-05-14T16:42:56.929Z,12.20
2018-05-14T16:45:28.135Z,6.63
2018-05-14T16:48:00.433Z,5.60
2018-05-14T16:50:30.523Z,6.70
2018-05-14T16:53:00.428Z,4.43
2018-05-14T16:55:31.649Z,9.00
2018-05-14T16:58:02.908Z,5.33
2018-05-14T17:00:34.028Z,7.77
2018-05-14T17:03:06.190Z,6.47
2018-05-14T17:05:36.271Z,7.40
2018-05-14T17:08:07.597Z,9.33
2018-05-14T17:10:37.744Z,13.73
2018-05-14T17:13:07.479Z,5.07
2018-05-14T17:15:40.192Z,8.30
2018-05-14T17:18:10.407Z,6.03
2018-05-14T17:20:41.081Z,6.13
2018-05-14T17:23:13.867Z,4.93
2018-05-14T17:25:44.386Z,4.27
2018-05-14T17:28:14.357Z,6.73
2018-05-14T17:30:44.929Z,7.00
2018-05-14T17:33:17.505Z,4.97
2018-05-14T17:35:48.075Z,12.60
2018-05-14T17:38:19.379Z,9.97
2018-05-14T17:40:49.118Z,5.93
2018-05-14T17:43:21.215Z,6.43
2018-05-14T17:45:52.293Z,15.73
2018-05-14T17:48:24.291Z,12.73
2018-05-14T17:50:56.157Z,9.73
2018-05-14T17:53:26.006Z,9.23
2018-05-14T17:55:55.770Z,11.50
2018-05-14T17:58:25.780Z,18.57
2018-05-14T18:00:57.029Z,14.43
2018-05-14T18:03:27.992Z,9.60
2018-05-14T18:06:01.794Z,12.10
2018-05-14T18:08:33.089Z,6.83
2018-05-14T18:11:03.459Z,17.70
2018-05-14T18:13:34.612Z,9.30
2018-05-14T18:16:07.481Z,17.57
2018-05-14T18:18:39.445Z,25.60
2018-05-14T18:21:11.721Z,12.30
2018-05-14T18:23:47.527Z,8.83
2018-05-14T18:26:19.752Z,6.73
2018-05-14T18:28:50.223Z,7.57
2018-05-14T18:31:25.471Z,6.63
2018-05-14T18:34:14.888Z,4.93
2018-05-14T18:36:45.638Z,7.83
2018-05-14T18:39:17.871Z,9.43
2018-05-14T18:41:47.830Z,5.53
2018-05-14T18:44:19.793Z,8.30
2018-05-14T18:46:50.493Z,5.77
2018-05-14T18:49:21.415Z,7.33
2018-05-14T18:51:52.782Z,5.60
2018-05-14T18:54:23.651Z,4.80
2018-05-14T18:56:55.495Z,8.20
2018-05-14T18:59:28.175Z,22.50
2018-05-14T19:02:04.395Z,5.73
2018-05-14T19:04:35.016Z,12.33
2018-05-14T19:07:07.531Z,8.90
2018-05-14T19:09:38.472Z,8.37
2018-05-14T19:12:10.669Z,7.40
2018-05-14T19:14:40.393Z,12.23
2018-05-14T19:17:17.450Z,13.03
2018-05-14T19:19:49.776Z,9.50
2018-05-14T19:22:25.213Z,10.33
2018-05-14T19:24:56.205Z,11.37
2018-05-14T19:27:27.042Z,6.93
2018-05-14T19:29:58.905Z,7.60
2018-05-14T19:32:31.723Z,11.70
2018-05-14T19:35:07.013Z,7.03
2018-05-14T19:37:37.850Z,8.03
2018-05-14T19:40:13.648Z,5.57
2018-05-14T19:42:44.528Z,5.70
2018-05-14T19:45:16.777Z,5.43
2018-05-14T19:47:48.770Z,7.00
2018-05-14T19:50:19.427Z,9.73
2018-05-14T19:52:49.493Z,7.00
2018-05-14T19:55:21.890Z,24.70
2018-05-14T19:57:53.670Z,16.50
2018-05-14T20:00:24.545Z,6.97
2018-05-14T20:02:54.310Z,8.13
2018-05-14T20:05:25.360Z,9.87
2018-05-14T20:07:55.901Z,5.80
2018-05-14T20:10:28.338Z,7.53
2018-05-14T20:12:58.089Z,7.03
2018-05-14T20:15:28.861Z,6.30
2018-05-14T20:17:58.801Z,5.53
2018-05-14T20:20:31.201Z,8.30
2018-05-14T20:23:01.141Z,10.47
2018-05-14T20:25:33.511Z,6.40
2018-05-14T20:28:05.332Z,8.30
2018-05-14T20:30:36.190Z,5.23
2018-05-14T20:33:08.273Z,5.57
2018-05-14T20:35:38.573Z,5.93
2018-05-14T20:38:10.685Z,6.47
2018-05-14T20:40:40.705Z,7.57
2018-05-14T20:43:12.763Z,8.30
2018-05-14T20:45:45.016Z,6.23
2018-05-14T20:48:14.939Z,6.37
2018-05-14T20:50:45.529Z,7.00
2018-05-14T20:53:16.139Z,8.60
2018-05-14T20:55:49.178Z,11.50
2018-05-14T20:58:18.960Z,7.30
2018-05-14T21:00:50.740Z,6.47
2018-05-14T21:03:20.381Z,8.00
2018-05-14T21:05:50.309Z,6.40
2018-05-14T21:08:23.201Z,6.63
2018-05-14T21:10:53.411Z,10.50
2018-05-14T21:13:25.335Z,9.17
2018-05-14T21:15:55.888Z,9.40
2018-05-14T21:18:26.936Z,9.33
2018-05-14T21:20:57.917Z,11.43
2018-05-14T21:23:28.670Z,6.27
2018-05-14T21:26:00.991Z,12.53
2018-05-14T21:28:32.163Z,6.97
2018-05-14T21:31:03.515Z,6.50
2018-05-14T21:33:33.173Z,9.10
2018-05-14T21:36:05.566Z,8.20
2018-05-14T21:38:36.056Z,10.80
2018-05-14T21:41:08.278Z,9.90
2018-05-14T21:43:40.005Z,8.43
2018-05-14T21:46:09.877Z,7.30
2018-05-14T21:48:39.516Z,7.77
2018-05-14T21:51:11.567Z,7.07
2018-05-14T21:53:41.356Z,9.97
2018-05-14T21:56:11.089Z,8.70
2018-05-14T21:58:40.796Z,8.10
2018-05-14T22:01:10.553Z,12.53
2018-05-14T22:03:41.456Z,12.97
2018-05-14T22:06:15.382Z,15.13
2018-05-14T22:08:45.238Z,17.30
2018-05-14T22:11:17.462Z,14.40
2018-05-14T22:13:47.144Z,14.97
2018-05-14T22:16:19.312Z,9.83
2018-05-14T22:18:49.342Z,8.70
2018-05-14T22:21:21.616Z,12.93
2018-05-14T22:23:53.680Z,20.97
2018-05-14T22:26:24.345Z,15.20
2018-05-14T22:28:56.069Z,10.50
2018-05-14T22:31:28.161Z,12.47
2018-05-14T22:33:58.959Z,16.03
2018-05-14T22:36:28.795Z,12.60
2018-05-14T22:38:58.752Z,17.83
2018-05-14T22:41:30.443Z,16.57
2018-05-14T22:44:00.260Z,16.83
2018-05-14T22:46:32.497Z,11.00
2018-05-14T22:49:03.243Z,12.40
2018-05-14T22:51:34.037Z,18.53
2018-05-14T22:54:04.328Z,14.83
2018-05-14T22:56:36.397Z,20.93
2018-05-14T22:59:06.807Z,12.07
2018-05-14T23:01:36.642Z,14.10
2018-05-14T23:04:06.197Z,11.27
2018-05-14T23:06:36.986Z,10.97
2018-05-14T23:09:09.160Z,15.93
2018-05-14T23:11:38.909Z,19.43
2018-05-14T23:14:10.785Z,23.43
2018-05-14T23:16:41.637Z,21.00
2018-05-14T23:19:13.174Z,20.30
2018-05-14T23:21:46.113Z,25.57
2018-05-14T23:24:16.649Z,24.73
2018-05-14T23:26:46.517Z,14.63
2018-05-14T23:29:17.519Z,15.00
2018-05-14T23:31:49.339Z,18.17
2018-05-14T23:34:20.947Z,29.10
2018-05-14T23:36:52.668Z,18.53
2018-05-14T23:39:22.269Z,15.07
2018-05-14T23:41:53.008Z,16.37
2018-05-14T23:44:22.887Z,18.53
2018-05-14T23:46:52.565Z,19.33
2018-05-14T23:49:22.313Z,17.73
2018-05-14T23:51:53.775Z,18.47
2018-05-14T23:54:25.773Z,19.60
2018-05-14T23:56:56.466Z,21.50
2018-05-14T23:59:26.115Z,18.37
